createdAt,value
2022-12-31T00:01:45.151Z,6.03
2022-12-31T00:04:11.871Z,5.45
2022-12-31T00:06:38.596Z,4.50
2022-12-31T00:09:07.420Z,7.22
2022-12-31T00:11:35.364Z,6.60
2022-12-31T00:14:02.206Z,5.20
2022-12-31T00:16:32.371Z,5.40
2022-12-31T00:19:00.912Z,5.68
2022-12-31T00:21:29.474Z,5.53
2022-12-31T00:23:56.588Z,4.30
2022-12-31T00:26:27.395Z,4.72
2022-12-31T00:28:55.884Z,4.88
2022-12-31T00:31:25.136Z,5.68
2022-12-31T00:33:52.395Z,5.68
2022-12-31T00:36:22.237Z,5.47
2022-12-31T00:38:50.866Z,6.07
2022-12-31T00:41:19.129Z,6.40
2022-12-31T00:43:46.146Z,5.75
2022-12-31T00:46:13.455Z,5.93
2022-12-31T00:48:40.677Z,5.40
2022-12-31T00:51:11.099Z,6.55
2022-12-31T00:53:39.661Z,6.22
2022-12-31T00:56:10.094Z,7.18
2022-12-31T00:58:37.441Z,6.53
2022-12-31T01:01:09.574Z,7.37
2022-12-31T01:03:36.375Z,8.93
2022-12-31T01:06:03.132Z,5.88
2022-12-31T01:08:29.832Z,6.20
2022-12-31T01:10:58.860Z,6.35
2022-12-31T01:13:25.537Z,6.40
2022-12-31T01:15:52.362Z,5.68
2022-12-31T01:18:19.161Z,5.03
2022-12-31T01:20:45.867Z,6.45
2022-12-31T01:23:15.734Z,7.53
2022-12-31T01:25:42.395Z,7.00
2022-12-31T01:28:10.455Z,6.88
2022-12-31T01:30:39.269Z,8.02
2022-12-31T01:33:06.002Z,5.75
2022-12-31T01:35:34.470Z,6.22
2022-12-31T01:38:01.300Z,5.67
2022-12-31T01:40:28.041Z,6.65
2022-12-31T01:42:55.099Z,6.05
2022-12-31T01:45:23.782Z,6.00
2022-12-31T01:47:53.538Z,4.85
2022-12-31T01:50:24.613Z,7.00
2022-12-31T01:52:54.696Z,5.50
2022-12-31T01:55:24.541Z,5.63
2022-12-31T01:57:55.377Z,5.75
2022-12-31T02:00:23.510Z,4.47
2022-12-31T02:02:50.672Z,4.00
2022-12-31T02:05:23.302Z,5.60
2022-12-31T02:07:50.728Z,5.10
2022-12-31T02:10:17.849Z,4.68
2022-12-31T02:12:44.867Z,5.20
2022-12-31T02:15:11.700Z,3.37
2022-12-31T02:17:47.476Z,3.85
2022-12-31T02:20:40.476Z,4.40
2022-12-31T02:23:31.392Z,3.03
2022-12-31T02:26:28.840Z,2.92
2022-12-31T02:29:14.688Z,2.83
2022-12-31T02:31:48.281Z,3.00
2022-12-31T02:34:21.903Z,2.53
2022-12-31T02:36:52.722Z,2.78
2022-12-31T02:39:19.840Z,2.92
2022-12-31T02:41:48.046Z,5.00
2022-12-31T02:44:26.331Z,2.50
2022-12-31T02:47:16.602Z,3.40
2022-12-31T02:49:52.635Z,2.17
2022-12-31T02:52:26.999Z,2.78
2022-12-31T02:55:02.568Z,2.53
2022-12-31T02:57:35.300Z,1.40
2022-12-31T03:00:05.256Z,2.22
2022-12-31T03:02:35.398Z,3.63
2022-12-31T03:05:03.300Z,2.47
2022-12-31T03:07:31.476Z,2.27
2022-12-31T03:09:58.793Z,2.83
2022-12-31T03:12:28.211Z,1.80
2022-12-31T03:14:54.996Z,2.72
2022-12-31T03:17:21.935Z,3.85
2022-12-31T03:19:50.107Z,2.63
2022-12-31T03:22:16.963Z,2.35
2022-12-31T03:24:43.654Z,2.42
2022-12-31T03:27:10.304Z,2.38
2022-12-31T03:29:37.003Z,4.10
2022-12-31T03:32:04.171Z,2.83
2022-12-31T03:34:30.918Z,2.22
2022-12-31T03:36:58.948Z,2.40
2022-12-31T03:39:25.618Z,1.98
2022-12-31T03:41:52.354Z,1.95
2022-12-31T03:44:19.111Z,1.77
2022-12-31T03:46:45.805Z,2.55
2022-12-31T03:49:12.539Z,2.25
2022-12-31T03:51:39.199Z,3.50
2022-12-31T03:54:07.266Z,5.32
2022-12-31T03:56:33.973Z,2.67
2022-12-31T03:59:00.718Z,1.95
2022-12-31T04:01:27.537Z,2.20
2022-12-31T04:03:54.243Z,2.70
2022-12-31T04:06:20.945Z,1.88
2022-12-31T04:08:47.615Z,5.57
2022-12-31T04:11:20.640Z,4.43
2022-12-31T04:13:47.731Z,1.30
2022-12-31T04:16:14.474Z,2.35
2022-12-31T04:18:41.240Z,3.42
2022-12-31T04:21:07.950Z,2.63
2022-12-31T04:23:34.606Z,2.30
2022-12-31T04:26:01.425Z,1.80
2022-12-31T04:28:29.584Z,2.10
2022-12-31T04:30:56.785Z,3.13
2022-12-31T04:33:23.499Z,2.70
2022-12-31T04:35:50.331Z,3.50
2022-12-31T04:38:17.017Z,3.00
2022-12-31T04:40:45.124Z,2.78
2022-12-31T04:43:11.819Z,1.80
2022-12-31T04:45:39.944Z,3.23
2022-12-31T04:48:06.851Z,4.57
2022-12-31T04:50:33.541Z,3.88
2022-12-31T04:53:00.213Z,1.50
2022-12-31T04:55:26.906Z,2.50
2022-12-31T04:57:53.580Z,2.23
2022-12-31T05:00:20.343Z,1.67
2022-12-31T05:02:48.631Z,2.67
2022-12-31T05:05:15.559Z,2.45
2022-12-31T05:07:42.233Z,2.88
2022-12-31T05:10:09.516Z,1.90
2022-12-31T05:12:36.239Z,2.10
2022-12-31T05:15:03.130Z,3.33
2022-12-31T05:17:29.780Z,3.13
2022-12-31T05:19:57.922Z,1.35
2022-12-31T05:22:24.701Z,1.50
2022-12-31T05:24:51.365Z,2.00
2022-12-31T05:27:18.100Z,3.33
2022-12-31T05:29:44.884Z,2.75
2022-12-31T05:32:11.591Z,2.95
2022-12-31T05:34:38.311Z,2.60
2022-12-31T05:37:06.482Z,1.90
2022-12-31T05:39:33.177Z,5.10
2022-12-31T05:41:59.881Z,1.77
2022-12-31T05:44:26.637Z,2.25
2022-12-31T05:46:53.372Z,1.90
2022-12-31T05:49:20.115Z,1.50
2022-12-31T05:51:46.769Z,2.88
2022-12-31T05:54:14.843Z,1.52
2022-12-31T05:56:41.621Z,5.07
2022-12-31T05:59:08.368Z,1.90
2022-12-31T06:01:35.057Z,2.30
2022-12-31T06:04:01.981Z,1.92
2022-12-31T06:06:28.681Z,2.75
2022-12-31T06:08:55.402Z,2.60
2022-12-31T06:11:23.707Z,3.20
2022-12-31T06:13:50.459Z,2.97
2022-12-31T06:16:17.177Z,2.88
2022-12-31T06:18:43.879Z,2.95
2022-12-31T06:21:10.592Z,2.05
2022-12-31T06:23:37.293Z,4.20
2022-12-31T06:26:05.921Z,1.75
2022-12-31T06:28:34.086Z,2.35
2022-12-31T06:31:01.177Z,1.95
2022-12-31T06:33:28.081Z,2.47
2022-12-31T06:35:56.393Z,2.43
2022-12-31T06:38:23.174Z,2.08
2022-12-31T06:40:50.243Z,2.25
2022-12-31T06:43:16.983Z,4.28
2022-12-31T06:45:45.127Z,2.17
2022-12-31T06:48:11.923Z,4.20
2022-12-31T06:50:39.097Z,2.03
2022-12-31T06:53:05.800Z,4.88
2022-12-31T06:55:32.993Z,1.70
2022-12-31T06:58:00.264Z,2.58
2022-12-31T07:00:27.653Z,2.93
2022-12-31T07:03:15.697Z,3.55
2022-12-31T07:05:47.055Z,3.33
2022-12-31T07:08:33.645Z,1.80
2022-12-31T07:11:06.628Z,2.83
2022-12-31T07:13:50.719Z,2.43
2022-12-31T07:16:30.298Z,4.72
2022-12-31T07:19:12.221Z,2.05
2022-12-31T07:21:40.660Z,4.00
2022-12-31T07:24:09.188Z,6.15
2022-12-31T07:26:56.846Z,3.33
2022-12-31T07:29:33.323Z,3.08
2022-12-31T07:32:11.304Z,2.85
2022-12-31T07:34:46.723Z,2.70
2022-12-31T07:37:22.290Z,5.50
2022-12-31T07:40:01.409Z,2.47
2022-12-31T07:42:36.544Z,3.63
2022-12-31T07:45:10.894Z,3.80
2022-12-31T07:47:38.336Z,7.07
2022-12-31T07:50:13.846Z,2.33
2022-12-31T07:52:41.058Z,4.20
2022-12-31T07:55:08.328Z,4.97
2022-12-31T07:57:41.031Z,5.35
2022-12-31T08:00:11.738Z,3.33
2022-12-31T08:03:01.826Z,2.33
2022-12-31T08:05:36.484Z,2.50
2022-12-31T08:08:17.453Z,3.80
2022-12-31T08:10:56.228Z,3.53
2022-12-31T08:13:23.226Z,3.20
2022-12-31T08:15:50.613Z,3.13
2022-12-31T08:18:17.711Z,4.93
2022-12-31T08:20:55.574Z,4.25
2022-12-31T08:23:28.393Z,2.65
2022-12-31T08:26:08.321Z,4.30
2022-12-31T08:28:52.933Z,3.28
2022-12-31T08:31:25.643Z,2.70
2022-12-31T08:34:05.514Z,4.25
2022-12-31T08:36:42.790Z,2.28
2022-12-31T08:39:24.678Z,3.28
2022-12-31T08:41:54.981Z,2.45
2022-12-31T08:44:29.719Z,3.37
2022-12-31T08:47:03.414Z,3.85
2022-12-31T08:49:33.154Z,4.85
2022-12-31T08:52:03.070Z,4.93
2022-12-31T08:54:30.325Z,3.10
2022-12-31T08:57:04.753Z,3.97
2022-12-31T08:59:39.105Z,4.25
2022-12-31T09:02:26.499Z,3.25
2022-12-31T09:05:01.092Z,3.08
2022-12-31T09:07:36.064Z,2.90
2022-12-31T09:10:14.656Z,3.03
2022-12-31T09:12:48.679Z,3.10
2022-12-31T09:15:21.272Z,2.95
2022-12-31T09:17:49.952Z,2.72
2022-12-31T09:20:23.152Z,2.78
2022-12-31T09:22:52.041Z,1.80
2022-12-31T09:25:21.084Z,3.15
2022-12-31T09:27:57.923Z,3.25
2022-12-31T09:30:28.649Z,2.42
2022-12-31T09:33:02.752Z,2.38
2022-12-31T09:35:36.891Z,2.53
2022-12-31T09:38:11.849Z,2.80
2022-12-31T09:41:12.475Z,2.42
2022-12-31T09:44:14.949Z,3.03
2022-12-31T09:47:18.743Z,3.97
2022-12-31T09:50:15.165Z,2.30
2022-12-31T09:52:58.807Z,2.25
2022-12-31T09:55:36.908Z,2.75
2022-12-31T09:58:16.733Z,2.45
2022-12-31T10:00:50.043Z,2.30
2022-12-31T10:03:33.997Z,2.37
2022-12-31T10:06:14.437Z,1.80
2022-12-31T10:08:54.381Z,2.25
2022-12-31T10:11:29.279Z,3.60
2022-12-31T10:14:08.129Z,3.25
2022-12-31T10:16:48.691Z,2.07
2022-12-31T10:19:45.824Z,1.80
2022-12-31T10:22:47.309Z,2.10
2022-12-31T10:25:46.548Z,3.08
2022-12-31T10:28:29.686Z,2.03
2022-12-31T10:31:12.789Z,3.13
2022-12-31T10:33:44.051Z,3.10
2022-12-31T10:36:18.843Z,3.17
2022-12-31T10:38:58.736Z,2.42
2022-12-31T10:42:05.401Z,2.63
2022-12-31T10:45:03.112Z,2.53
2022-12-31T10:48:00.461Z,3.08
2022-12-31T10:51:01.911Z,2.90
2022-12-31T10:54:18.753Z,2.30
2022-12-31T10:57:27.114Z,3.67
2022-12-31T11:00:17.168Z,4.00
2022-12-31T11:03:20.954Z,4.10
2022-12-31T11:06:18.772Z,2.72
2022-12-31T11:09:06.336Z,3.92
2022-12-31T11:11:42.255Z,3.78
2022-12-31T11:14:38.114Z,3.53
2022-12-31T11:17:33.522Z,2.72
2022-12-31T11:20:19.466Z,3.10
2022-12-31T11:22:59.214Z,4.10
2022-12-31T11:25:33.994Z,2.28
2022-12-31T11:28:16.698Z,3.73
2022-12-31T11:30:57.768Z,2.55
2022-12-31T11:33:43.032Z,3.47
2022-12-31T11:36:24.444Z,3.22
2022-12-31T11:38:53.218Z,3.33
2022-12-31T11:41:30.091Z,4.53
2022-12-31T11:44:06.036Z,5.18
2022-12-31T11:46:51.275Z,3.83
2022-12-31T11:49:56.054Z,5.25
2022-12-31T11:52:49.609Z,3.17
2022-12-31T11:55:34.858Z,3.43
2022-12-31T11:58:13.266Z,6.75
2022-12-31T12:00:44.027Z,4.68
2022-12-31T12:03:11.574Z,4.45
2022-12-31T12:05:40.394Z,2.47
2022-12-31T12:08:07.172Z,2.07
2022-12-31T12:10:41.017Z,2.70
2022-12-31T12:13:13.798Z,3.85
2022-12-31T12:15:44.700Z,6.65
2022-12-31T12:18:24.873Z,4.90
2022-12-31T12:21:00.667Z,7.63
2022-12-31T12:23:27.549Z,4.40
2022-12-31T12:25:54.255Z,4.43
2022-12-31T12:28:23.133Z,2.55
2022-12-31T12:30:59.334Z,3.17
2022-12-31T12:33:27.142Z,4.00
2022-12-31T12:36:06.453Z,6.68
2022-12-31T12:38:33.338Z,5.82
2022-12-31T12:41:02.523Z,5.20
2022-12-31T12:43:31.072Z,3.47
2022-12-31T12:46:00.256Z,5.43
2022-12-31T12:48:34.705Z,117.20
2022-12-31T12:51:13.931Z,17.52
2022-12-31T12:53:49.636Z,4.57
2022-12-31T12:56:27.684Z,2.47
2022-12-31T12:59:10.401Z,12.50
2022-12-31T13:01:42.620Z,4.93
2022-12-31T13:04:39.490Z,2.83
2022-12-31T13:07:18.915Z,2.30
2022-12-31T13:10:01.316Z,3.33
2022-12-31T13:13:05.268Z,2.97
2022-12-31T13:15:26.761Z,2.65
2022-12-31T13:18:03.077Z,3.20
2022-12-31T13:20:38.194Z,2.75
2022-12-31T13:23:17.481Z,2.60
2022-12-31T13:25:58.655Z,3.57
2022-12-31T13:28:26.591Z,2.78
2022-12-31T13:31:03.240Z,2.88
2022-12-31T13:33:38.280Z,90.93
2022-12-31T13:36:08.786Z,11.43
2022-12-31T13:38:40.577Z,3.63
2022-12-31T13:41:13.437Z,2.72
2022-12-31T13:43:50.636Z,4.32
2022-12-31T13:46:23.636Z,3.60
2022-12-31T13:48:53.471Z,2.85
2022-12-31T13:51:31.368Z,5.30
2022-12-31T13:54:03.431Z,3.67
2022-12-31T13:56:36.209Z,4.32
2022-12-31T13:59:07.463Z,3.63
2022-12-31T14:01:38.760Z,3.45
2022-12-31T14:04:10.049Z,4.87
2022-12-31T14:06:41.526Z,5.07
2022-12-31T14:09:13.623Z,5.10
2022-12-31T14:11:58.405Z,4.93
2022-12-31T14:14:31.156Z,4.03
2022-12-31T14:17:01.728Z,4.10
2022-12-31T14:19:41.769Z,4.43
2022-12-31T14:22:17.183Z,4.68
2022-12-31T14:24:47.868Z,4.10
2022-12-31T14:27:21.703Z,3.70
2022-12-31T14:29:53.529Z,3.87
2022-12-31T14:32:53.262Z,3.90
2022-12-31T14:35:41.380Z,4.82
2022-12-31T14:38:17.327Z,2.50
2022-12-31T14:40:59.920Z,3.00
2022-12-31T14:43:39.684Z,3.83
2022-12-31T14:46:18.239Z,1.92
2022-12-31T14:48:55.750Z,3.25
2022-12-31T14:51:26.814Z,4.53
2022-12-31T14:53:54.547Z,3.40
2022-12-31T14:56:40.126Z,4.60
2022-12-31T14:59:25.251Z,6.07
2022-12-31T15:01:52.164Z,2.72
2022-12-31T15:04:31.170Z,3.15
2022-12-31T15:07:06.876Z,4.32
2022-12-31T15:09:58.107Z,2.63
2022-12-31T15:12:44.941Z,3.45
2022-12-31T15:15:24.955Z,3.35
2022-12-31T15:18:01.753Z,2.63
2022-12-31T15:20:44.990Z,5.65
2022-12-31T15:23:21.937Z,5.17
2022-12-31T15:25:51.800Z,5.80
2022-12-31T15:28:30.624Z,4.95
2022-12-31T15:31:18.521Z,4.88
2022-12-31T15:33:56.424Z,7.05
2022-12-31T15:36:25.329Z,7.00
2022-12-31T15:39:02.997Z,6.13
2022-12-31T15:41:37.900Z,5.50
2022-12-31T15:44:15.975Z,5.40
2022-12-31T15:46:43.892Z,4.60
2022-12-31T15:49:15.799Z,5.37
2022-12-31T15:51:48.315Z,12.88
2022-12-31T15:54:23.847Z,6.10
2022-12-31T15:56:52.745Z,9.93
2022-12-31T15:59:22.271Z,7.97
2022-12-31T16:01:49.318Z,8.20
2022-12-31T16:04:19.951Z,7.90
2022-12-31T16:06:51.005Z,7.13
2022-12-31T16:09:22.721Z,7.72
2022-12-31T16:11:50.023Z,14.05
2022-12-31T16:14:22.181Z,16.10
2022-12-31T16:16:54.742Z,15.18
2022-12-31T16:19:29.827Z,15.82
2022-12-31T16:21:58.315Z,11.00
2022-12-31T16:24:28.348Z,13.23
2022-12-31T16:26:59.747Z,9.23
2022-12-31T16:29:28.104Z,8.10
2022-12-31T16:31:55.057Z,68.40
2022-12-31T16:34:23.773Z,59.85
2022-12-31T16:36:58.269Z,32.13
2022-12-31T16:39:30.699Z,22.10
2022-12-31T16:42:09.731Z,23.98
2022-12-31T16:44:37.802Z,27.42
2022-12-31T16:47:06.910Z,22.42
2022-12-31T16:49:37.256Z,13.40
2022-12-31T16:52:07.686Z,11.00
2022-12-31T16:54:37.086Z,25.02
2022-12-31T16:57:04.867Z,21.85
2022-12-31T16:59:36.435Z,15.18
2022-12-31T17:02:15.844Z,11.45
2022-12-31T17:04:53.563Z,9.47
2022-12-31T17:07:35.332Z,10.02
2022-12-31T17:10:03.743Z,9.70
2022-12-31T17:12:41.849Z,10.88
2022-12-31T17:15:20.790Z,11.02
2022-12-31T17:17:54.749Z,10.67
2022-12-31T17:20:27.143Z,11.50
2022-12-31T17:22:56.391Z,16.55
2022-12-31T17:25:26.463Z,14.70
2022-12-31T17:27:56.565Z,10.57
2022-12-31T17:30:37.558Z,13.23
2022-12-31T17:33:27.306Z,11.35
2022-12-31T17:35:55.880Z,12.73
2022-12-31T17:38:30.953Z,12.65
2022-12-31T17:41:04.019Z,12.00
2022-12-31T17:43:35.224Z,12.17
2022-12-31T17:46:08.242Z,11.57
2022-12-31T17:48:36.868Z,11.45
2022-12-31T17:51:03.746Z,11.30
2022-12-31T17:53:30.414Z,12.52
2022-12-31T17:56:01.335Z,11.83
2022-12-31T17:58:30.186Z,12.65
2022-12-31T18:00:57.988Z,12.07
2022-12-31T18:03:25.032Z,12.23
2022-12-31T18:05:53.152Z,14.57
2022-12-31T18:08:19.891Z,13.90
2022-12-31T18:10:46.787Z,12.30
2022-12-31T18:13:15.997Z,13.35
2022-12-31T18:15:42.667Z,12.98
2022-12-31T18:18:24.445Z,13.43
2022-12-31T18:20:55.471Z,15.77
2022-12-31T18:23:25.637Z,16.50
2022-12-31T18:25:52.307Z,81.10
2022-12-31T18:28:19.461Z,136.88
2022-12-31T18:30:47.088Z,169.43
2022-12-31T18:33:15.297Z,173.17
2022-12-31T18:36:07.726Z,169.25
2022-12-31T18:38:30.046Z,171.20
2022-12-31T18:40:59.300Z,135.95
2022-12-31T18:43:26.051Z,117.28
2022-12-31T18:45:53.186Z,68.00
2022-12-31T18:48:19.909Z,53.85
2022-12-31T18:50:47.519Z,44.25
2022-12-31T18:53:16.187Z,45.92
2022-12-31T18:55:46.632Z,38.38
2022-12-31T18:58:13.369Z,37.50
2022-12-31T19:00:40.303Z,33.88
2022-12-31T19:03:07.058Z,30.33
2022-12-31T19:05:37.021Z,25.17
2022-12-31T19:08:03.970Z,24.17
2022-12-31T19:10:30.771Z,27.07
2022-12-31T19:12:58.904Z,26.10
2022-12-31T19:15:29.133Z,27.80
2022-12-31T19:17:56.271Z,24.63
2022-12-31T19:20:23.181Z,23.65
2022-12-31T19:22:49.901Z,22.07
2022-12-31T19:25:22.149Z,18.15
2022-12-31T19:27:49.337Z,20.75
2022-12-31T19:30:21.076Z,19.00
2022-12-31T19:32:47.935Z,19.30
2022-12-31T19:35:15.835Z,17.63
2022-12-31T19:37:44.124Z,16.83
2022-12-31T19:40:14.539Z,16.52
2022-12-31T19:42:41.928Z,20.63
2022-12-31T19:45:13.896Z,18.90
2022-12-31T19:47:42.603Z,17.13
2022-12-31T19:50:12.969Z,17.55
2022-12-31T19:52:40.094Z,20.38
2022-12-31T19:55:07.560Z,18.88
2022-12-31T19:57:34.257Z,19.30
2022-12-31T20:00:00.925Z,16.70
2022-12-31T20:02:27.898Z,19.98
2022-12-31T20:04:56.141Z,19.92
2022-12-31T20:07:27.147Z,18.65
2022-12-31T20:09:54.101Z,23.10
2022-12-31T20:12:20.831Z,19.63
2022-12-31T20:14:47.689Z,19.67
2022-12-31T20:17:14.462Z,20.35
2022-12-31T20:19:41.199Z,18.85
2022-12-31T20:22:09.325Z,20.85
2022-12-31T20:24:35.989Z,18.97
2022-12-31T20:27:02.908Z,24.40
2022-12-31T20:29:29.591Z,21.77
2022-12-31T20:31:56.457Z,21.98
2022-12-31T20:34:23.194Z,22.05
2022-12-31T20:36:49.876Z,21.60
2022-12-31T20:39:18.030Z,21.15
2022-12-31T20:41:44.747Z,22.23
2022-12-31T20:44:11.414Z,20.15
2022-12-31T20:46:38.180Z,19.70
2022-12-31T20:49:05.828Z,19.40
2022-12-31T20:51:34.476Z,18.65
2022-12-31T20:54:02.827Z,18.40
2022-12-31T20:56:33.271Z,22.80
2022-12-31T20:59:00.401Z,20.98
2022-12-31T21:01:36.303Z,18.67
2022-12-31T21:04:08.437Z,20.45
2022-12-31T21:06:35.760Z,19.92
2022-12-31T21:09:04.082Z,20.67
2022-12-31T21:11:32.315Z,20.95
2022-12-31T21:13:59.600Z,18.23
2022-12-31T21:16:27.122Z,18.13
2022-12-31T21:18:54.059Z,21.13
2022-12-31T21:21:21.111Z,20.30
2022-12-31T21:23:47.885Z,20.80
2022-12-31T21:26:14.702Z,18.23
2022-12-31T21:28:42.893Z,21.63
2022-12-31T21:31:12.157Z,19.20
2022-12-31T21:33:39.218Z,19.30
2022-12-31T21:36:06.360Z,18.15
2022-12-31T21:38:35.870Z,19.10
2022-12-31T21:41:03.102Z,19.83
2022-12-31T21:43:29.886Z,21.85
2022-12-31T21:46:02.362Z,20.77
2022-12-31T21:48:29.169Z,22.35
2022-12-31T21:51:05.058Z,19.10
2022-12-31T21:53:36.607Z,19.27
2022-12-31T21:56:04.045Z,21.63
2022-12-31T21:58:31.422Z,23.85
2022-12-31T22:00:59.458Z,22.48
2022-12-31T22:03:28.573Z,21.90
2022-12-31T22:05:58.261Z,17.35
2022-12-31T22:08:24.955Z,28.90
2022-12-31T22:10:53.067Z,23.02
2022-12-31T22:13:19.956Z,24.05
2022-12-31T22:15:48.314Z,25.53
2022-12-31T22:18:16.459Z,26.08
2022-12-31T22:20:44.522Z,28.13
2022-12-31T22:23:11.319Z,21.23
2022-12-31T22:25:38.933Z,21.08
2022-12-31T22:28:37.399Z,21.37
2022-12-31T22:30:53.344Z,20.60
2022-12-31T22:33:20.078Z,19.80
2022-12-31T22:35:58.844Z,22.90
2022-12-31T22:38:25.779Z,27.00
2022-12-31T22:41:00.320Z,22.40
2022-12-31T22:43:27.094Z,26.02
2022-12-31T22:45:53.837Z,30.67
2022-12-31T22:48:20.478Z,30.83
2022-12-31T22:50:54.522Z,23.00
2022-12-31T22:53:22.776Z,21.03
2022-12-31T22:55:49.500Z,20.70
2022-12-31T22:58:16.323Z,22.85
2022-12-31T23:00:43.065Z,22.48
2022-12-31T23:03:09.726Z,24.50
2022-12-31T23:05:36.453Z,23.70
2022-12-31T23:08:10.237Z,37.15
2022-12-31T23:10:45.889Z,34.50
2022-12-31T23:13:12.591Z,38.00
2022-12-31T23:15:39.231Z,43.88
2022-12-31T23:18:05.885Z,50.53
2022-12-31T23:20:32.642Z,72.57
2022-12-31T23:22:59.298Z,100.80
2022-12-31T23:25:25.991Z,132.85
2022-12-31T23:27:54.056Z,185.40
2022-12-31T23:30:20.715Z,200.27
2022-12-31T23:32:47.577Z,182.82
2022-12-31T23:35:14.449Z,170.45
2022-12-31T23:37:41.241Z,180.73
2022-12-31T23:40:09.329Z,172.07
2022-12-31T23:42:36.007Z,181.17
2022-12-31T23:45:04.997Z,223.77
2022-12-31T23:47:31.747Z,234.65
2022-12-31T23:49:58.527Z,247.40
2022-12-31T23:52:25.212Z,222.20
2022-12-31T23:54:51.863Z,184.40
2022-12-31T23:57:18.539Z,219.13
2022-12-31T23:59:45.215Z,222.45
